createdAt,value
2022-08-01T00:00:47.969Z,7.40
2022-08-01T00:04:04.398Z,7.58
2022-08-01T00:07:20.551Z,8.10
2022-08-01T00:10:38.367Z,8.23
2022-08-01T00:13:54.674Z,8.60
2022-08-01T00:17:13.449Z,9.73
2022-08-01T00:20:29.739Z,9.58
2022-08-01T00:23:47.202Z,9.90
2022-08-01T00:27:03.461Z,9.58
2022-08-01T00:30:20.279Z,9.63
2022-08-01T00:33:36.802Z,9.33
2022-08-01T00:36:52.851Z,9.78
2022-08-01T00:40:09.335Z,9.33
2022-08-01T00:43:25.760Z,10.30
2022-08-01T00:46:42.222Z,9.85
2022-08-01T00:49:58.403Z,9.68
2022-08-01T00:53:18.883Z,9.85
2022-08-01T00:56:36.486Z,10.08
2022-08-01T00:59:53.954Z,10.03
2022-08-01T01:03:10.787Z,10.88
2022-08-01T01:06:44.195Z,9.68
2022-08-01T01:10:07.761Z,9.70
2022-08-01T01:13:30.178Z,9.63
2022-08-01T01:16:49.669Z,9.40
2022-08-01T01:20:09.526Z,9.93
2022-08-01T01:23:38.589Z,9.48
2022-08-01T01:27:03.262Z,8.78
2022-08-01T01:30:20.811Z,8.45
2022-08-01T01:33:45.342Z,8.83
2022-08-01T01:37:00.958Z,7.73
2022-08-01T01:40:20.563Z,7.85
2022-08-01T01:43:40.499Z,8.23
2022-08-01T01:46:59.032Z,7.83
2022-08-01T01:50:20.172Z,7.58
2022-08-01T01:53:40.170Z,7.95
2022-08-01T01:57:00.285Z,6.48
2022-08-01T02:00:19.700Z,7.03
2022-08-01T02:03:38.232Z,6.65
2022-08-01T02:06:58.542Z,7.05
2022-08-01T02:10:18.643Z,6.90
2022-08-01T02:13:38.798Z,7.45
2022-08-01T02:16:57.701Z,7.08
2022-08-01T02:20:16.267Z,6.95
2022-08-01T02:23:37.665Z,8.20
2022-08-01T02:26:59.365Z,8.10
2022-08-01T02:30:21.016Z,7.80
2022-08-01T02:33:43.435Z,8.60
2022-08-01T02:37:02.354Z,8.13
2022-08-01T02:40:23.748Z,8.25
2022-08-01T02:43:45.356Z,8.93
2022-08-01T02:47:09.056Z,9.20
2022-08-01T02:50:27.684Z,8.63
2022-08-01T02:53:46.460Z,9.93
2022-08-01T02:57:05.254Z,10.20
2022-08-01T03:00:25.004Z,10.50
2022-08-01T03:03:45.583Z,10.30
2022-08-01T03:07:03.104Z,10.20
2022-08-01T03:10:21.901Z,10.45
2022-08-01T03:13:40.979Z,10.90
2022-08-01T03:16:58.877Z,11.45
2022-08-01T03:20:19.321Z,11.30
2022-08-01T03:23:37.844Z,12.10
2022-08-01T03:26:56.389Z,12.48
2022-08-01T03:30:17.380Z,12.33
2022-08-01T03:33:33.943Z,12.58
2022-08-01T03:36:55.248Z,12.03
2022-08-01T03:40:16.218Z,11.38
2022-08-01T03:43:39.516Z,10.45
2022-08-01T03:47:01.089Z,11.18
2022-08-01T03:50:19.976Z,11.30
2022-08-01T03:53:41.114Z,10.80
2022-08-01T03:56:59.977Z,10.95
2022-08-01T04:00:20.189Z,10.25
2022-08-01T04:03:41.934Z,10.18
2022-08-01T04:06:55.800Z,10.45
2022-08-01T04:13:29.387Z,11.13
2022-08-01T04:16:46.737Z,10.83
2022-08-01T04:20:04.808Z,10.50
2022-08-01T04:23:24.741Z,10.60
2022-08-01T04:26:42.896Z,11.85
2022-08-01T04:30:02.139Z,11.50
2022-08-01T04:33:21.752Z,10.95
2022-08-01T04:36:43.645Z,11.25
2022-08-01T04:40:02.465Z,14.00
2022-08-01T04:43:18.977Z,14.08
2022-08-01T04:46:36.672Z,13.98
2022-08-01T04:49:54.349Z,14.10
2022-08-01T04:53:10.638Z,14.78
2022-08-01T04:56:27.043Z,14.78
2022-08-01T04:59:48.117Z,15.30
2022-08-01T05:03:04.390Z,15.75
2022-08-01T05:06:20.975Z,15.38
2022-08-01T05:09:37.683Z,14.85
2022-08-01T05:12:53.665Z,13.40
2022-08-01T05:16:10.300Z,13.65
2022-08-01T05:19:26.515Z,12.83
2022-08-01T05:22:42.832Z,12.40
2022-08-01T05:25:58.900Z,12.40
2022-08-01T05:29:15.624Z,12.88
2022-08-01T05:32:33.686Z,10.88
2022-08-01T05:35:49.725Z,11.85
2022-08-01T05:39:05.948Z,9.85
2022-08-01T05:42:21.980Z,10.18
2022-08-01T05:45:38.303Z,10.45
2022-08-01T05:48:54.492Z,10.90
2022-08-01T05:52:11.287Z,10.70
2022-08-01T05:55:27.562Z,9.33
2022-08-01T05:58:43.681Z,8.00
2022-08-01T06:02:00.161Z,8.23
2022-08-01T06:05:17.916Z,7.60
2022-08-01T06:08:34.110Z,7.23
2022-08-01T06:11:50.440Z,8.38
2022-08-01T06:15:06.626Z,7.68
2022-08-01T06:18:24.108Z,7.88
2022-08-01T06:21:40.229Z,8.50
2022-08-01T06:24:56.213Z,6.68
2022-08-01T06:28:14.043Z,6.25
2022-08-01T06:31:33.499Z,6.43
2022-08-01T06:34:48.533Z,6.80
2022-08-01T06:38:04.788Z,6.43
2022-08-01T06:41:23.490Z,6.25
2022-08-01T06:44:40.142Z,6.18
2022-08-01T06:47:57.544Z,6.13
2022-08-01T06:51:18.562Z,5.30
2022-08-01T06:54:38.681Z,5.23
2022-08-01T06:58:00.142Z,5.33
2022-08-01T07:01:17.092Z,5.30
2022-08-01T07:04:34.502Z,4.97
2022-08-01T07:07:52.270Z,5.23
2022-08-01T07:11:08.500Z,5.03
2022-08-01T07:14:24.558Z,4.35
2022-08-01T07:17:42.590Z,4.15
2022-08-01T07:20:58.933Z,4.27
2022-08-01T07:24:19.623Z,4.63
2022-08-01T07:27:36.535Z,4.25
2022-08-01T07:30:54.678Z,4.97
2022-08-01T07:34:11.204Z,4.05
2022-08-01T07:37:42.118Z,3.70
2022-08-01T07:40:46.271Z,3.85
2022-08-01T07:44:05.011Z,3.88
2022-08-01T07:47:21.480Z,4.03
2022-08-01T07:50:37.846Z,3.70
2022-08-01T07:53:53.956Z,4.08
2022-08-01T07:57:11.162Z,3.00
2022-08-01T08:00:29.619Z,3.18
2022-08-01T08:03:45.804Z,3.35
2022-08-01T08:07:02.059Z,3.20
2022-08-01T08:10:19.406Z,2.65
2022-08-01T08:13:35.593Z,2.20
2022-08-01T08:16:52.719Z,2.43
2022-08-01T08:20:09.611Z,5.60
2022-08-01T08:23:41.881Z,5.68
2022-08-01T08:27:00.182Z,2.70
2022-08-01T08:30:18.946Z,2.40
2022-08-01T08:33:37.072Z,2.30
2022-08-01T08:36:53.303Z,2.28
2022-08-01T08:40:13.753Z,2.53
2022-08-01T08:43:30.442Z,2.70
2022-08-01T08:46:52.888Z,2.25
2022-08-01T08:50:11.197Z,1.90
2022-08-01T08:53:34.787Z,1.70
2022-08-01T08:56:49.540Z,2.03
2022-08-01T09:00:06.137Z,2.30
2022-08-01T09:03:23.029Z,2.00
2022-08-01T09:06:39.629Z,1.35
2022-08-01T09:10:00.263Z,1.95
2022-08-01T09:13:20.348Z,3.50
2022-08-01T09:16:36.963Z,4.53
2022-08-01T09:19:57.703Z,1.90
2022-08-01T09:23:14.633Z,1.50
2022-08-01T09:26:36.872Z,2.00
2022-08-01T09:30:01.097Z,1.70
2022-08-01T09:33:21.507Z,1.40
2022-08-01T09:36:34.205Z,1.38
2022-08-01T09:43:20.548Z,1.23
2022-08-01T09:46:39.030Z,1.50
2022-08-01T09:50:02.998Z,1.40
2022-08-01T09:53:29.734Z,1.50
2022-08-01T09:56:47.879Z,1.40
2022-08-01T10:00:06.834Z,1.60
2022-08-01T10:03:33.222Z,4.88
2022-08-01T10:06:55.598Z,1.90
2022-08-01T10:10:22.355Z,3.40
2022-08-01T10:17:01.451Z,2.88
2022-08-01T10:20:29.782Z,2.28
2022-08-01T10:23:41.278Z,1.55
2022-08-01T10:27:06.075Z,1.90
2022-08-01T10:30:23.368Z,1.65
2022-08-01T10:33:50.824Z,1.85
2022-08-01T10:37:02.262Z,2.30
2022-08-01T10:40:31.029Z,2.73
2022-08-01T10:43:40.435Z,1.40
2022-08-01T10:47:04.632Z,2.00
2022-08-01T10:50:29.646Z,1.43
2022-08-01T10:53:57.039Z,1.80
2022-08-01T10:57:15.519Z,1.78
2022-08-01T11:00:34.970Z,1.60
2022-08-01T11:03:59.949Z,1.40
2022-08-01T11:07:21.004Z,1.48
2022-08-01T11:10:44.989Z,1.90
2022-08-01T11:14:15.722Z,3.43
2022-08-01T11:17:48.120Z,2.05
2022-08-01T11:21:56.743Z,1.60
2022-08-01T11:25:01.260Z,1.40
2022-08-01T11:31:46.904Z,1.58
2022-08-01T11:35:05.550Z,1.73
2022-08-01T11:38:37.067Z,1.48
2022-08-01T11:41:56.358Z,1.48
2022-08-01T11:45:18.094Z,1.30
2022-08-01T11:48:34.087Z,1.78
2022-08-01T11:51:51.254Z,5.53
2022-08-01T11:55:17.178Z,6.53
2022-08-01T11:58:35.534Z,1.90
2022-08-01T12:01:52.053Z,2.00
2022-08-01T12:05:14.204Z,1.90
2022-08-01T12:08:39.201Z,1.80
2022-08-01T12:11:56.052Z,3.45
2022-08-01T12:15:16.456Z,1.75
2022-08-01T12:18:32.628Z,2.10
2022-08-01T12:21:52.157Z,1.80
2022-08-01T12:25:16.656Z,1.93
2022-08-01T12:28:32.840Z,1.73
2022-08-01T12:31:50.215Z,1.65
2022-08-01T12:35:09.833Z,1.63
2022-08-01T12:38:30.205Z,1.75
2022-08-01T12:41:46.609Z,2.23
2022-08-01T12:45:03.753Z,7.35
2022-08-01T12:48:22.324Z,4.63
2022-08-01T12:55:20.770Z,2.05
2022-08-01T12:58:41.645Z,1.90
2022-08-01T13:01:59.530Z,1.93
2022-08-01T13:05:17.996Z,1.73
2022-08-01T13:08:39.534Z,1.43
2022-08-01T13:12:03.969Z,2.00
2022-08-01T13:15:46.349Z,1.98
2022-08-01T13:19:05.087Z,1.90
2022-08-01T13:22:21.337Z,1.80
2022-08-01T13:28:40.144Z,2.30
2022-08-01T13:31:56.764Z,8.58
2022-08-01T13:35:16.309Z,2.85
2022-08-01T13:38:46.423Z,2.15
2022-08-01T13:42:04.673Z,1.78
2022-08-01T13:45:22.346Z,1.98
2022-08-01T13:51:56.355Z,1.65
2022-08-01T13:55:13.877Z,1.80
2022-08-01T13:58:30.565Z,1.80
2022-08-01T14:01:47.078Z,2.05
2022-08-01T14:05:03.807Z,3.03
2022-08-01T14:08:20.177Z,2.63
2022-08-01T14:11:37.405Z,2.20
2022-08-01T14:14:53.883Z,2.03
2022-08-01T14:18:10.613Z,2.43
2022-08-01T14:21:27.082Z,2.15
2022-08-01T14:24:43.445Z,2.50
2022-08-01T14:28:01.259Z,2.38
2022-08-01T14:31:17.348Z,10.05
2022-08-01T14:34:33.510Z,10.30
2022-08-01T14:37:49.640Z,5.63
2022-08-01T14:41:06.039Z,3.90
2022-08-01T14:44:22.537Z,4.35
2022-08-01T14:47:39.402Z,3.88
2022-08-01T14:50:55.733Z,3.98
2022-08-01T14:54:13.008Z,6.13
2022-08-01T14:57:34.108Z,3.80
2022-08-01T15:00:52.424Z,5.08
2022-08-01T15:04:09.907Z,2.83
2022-08-01T15:07:28.455Z,3.48
2022-08-01T15:10:45.166Z,4.05
2022-08-01T15:14:11.331Z,3.83
2022-08-01T15:17:30.892Z,3.60
2022-08-01T15:20:47.505Z,3.30
2022-08-01T15:24:03.973Z,3.60
2022-08-01T15:27:20.405Z,3.20
2022-08-01T15:30:37.403Z,16.08
2022-08-01T15:33:54.335Z,5.70
2022-08-01T15:37:16.426Z,6.35
2022-08-01T15:40:34.757Z,6.03
2022-08-01T15:43:55.860Z,7.88
2022-08-01T15:47:09.647Z,4.93
2022-08-01T15:50:25.812Z,4.28
2022-08-01T15:53:42.174Z,3.28
2022-08-01T15:56:59.874Z,3.28
2022-08-01T16:00:20.073Z,4.00
2022-08-01T16:03:36.205Z,4.00
2022-08-01T16:06:52.722Z,4.05
2022-08-01T16:10:09.102Z,3.98
2022-08-01T16:13:26.455Z,3.48
2022-08-01T16:16:44.243Z,3.43
2022-08-01T16:20:02.297Z,5.10
2022-08-01T16:23:18.874Z,3.60
2022-08-01T16:26:35.339Z,3.30
2022-08-01T16:29:51.618Z,10.20
2022-08-01T16:33:16.135Z,5.33
2022-08-01T16:36:26.181Z,4.18
2022-08-01T16:39:42.468Z,5.35
2022-08-01T16:42:58.682Z,5.95
2022-08-01T16:46:16.365Z,5.45
2022-08-01T16:49:33.001Z,3.70
2022-08-01T16:52:49.999Z,3.58
2022-08-01T16:56:07.415Z,3.90
2022-08-01T16:59:23.876Z,3.65
2022-08-01T17:02:40.693Z,3.75
2022-08-01T17:05:57.694Z,3.78
2022-08-01T17:09:15.220Z,7.43
2022-08-01T17:12:32.998Z,4.23
2022-08-01T17:15:49.215Z,4.37
2022-08-01T17:19:05.797Z,3.50
2022-08-01T17:22:25.434Z,3.58
2022-08-01T17:25:52.619Z,3.78
2022-08-01T17:29:20.345Z,3.58
2022-08-01T17:32:37.041Z,3.63
2022-08-01T17:35:56.672Z,3.40
2022-08-01T17:39:23.492Z,3.65
2022-08-01T17:42:38.883Z,3.70
2022-08-01T17:45:57.999Z,3.95
2022-08-01T17:49:14.362Z,3.60
2022-08-01T17:52:31.372Z,3.50
2022-08-01T17:55:55.930Z,3.55
2022-08-01T17:59:08.137Z,3.25
2022-08-01T18:02:25.762Z,3.40
2022-08-01T18:05:43.418Z,3.60
2022-08-01T18:09:02.403Z,3.40
2022-08-01T18:12:19.183Z,3.73
2022-08-01T18:15:35.421Z,3.75
2022-08-01T18:18:52.930Z,4.20
2022-08-01T18:22:28.842Z,3.78
2022-08-01T18:25:29.796Z,3.95
2022-08-01T18:28:47.035Z,3.70
2022-08-01T18:32:06.131Z,3.58
2022-08-01T18:35:24.184Z,4.08
2022-08-01T18:38:44.234Z,4.20
2022-08-01T18:42:01.810Z,4.13
2022-08-01T18:45:20.046Z,3.95
2022-08-01T18:48:36.302Z,3.93
2022-08-01T18:51:52.415Z,4.18
2022-08-01T18:55:09.612Z,4.63
2022-08-01T18:58:27.266Z,4.70
2022-08-01T19:01:44.138Z,4.28
2022-08-01T19:05:01.269Z,4.73
2022-08-01T19:08:18.281Z,4.78
2022-08-01T19:11:34.628Z,4.80
2022-08-01T19:14:50.659Z,5.05
2022-08-01T19:18:11.410Z,4.90
2022-08-01T19:21:28.222Z,5.40
2022-08-01T19:24:44.646Z,5.38
2022-08-01T19:28:02.915Z,5.23
2022-08-01T19:31:20.775Z,5.03
2022-08-01T19:34:42.347Z,5.20
2022-08-01T19:37:58.952Z,6.35
2022-08-01T19:41:16.688Z,5.43
2022-08-01T19:44:35.068Z,5.33
2022-08-01T19:47:57.793Z,5.30
2022-08-01T19:51:18.371Z,5.40
2022-08-01T19:54:39.261Z,5.45
2022-08-01T20:01:20.790Z,6.15
2022-08-01T20:04:38.146Z,6.23
2022-08-01T20:07:54.777Z,5.70
2022-08-01T20:11:15.972Z,5.83
2022-08-01T20:14:34.068Z,5.98
2022-08-01T20:17:50.822Z,5.80
2022-08-01T20:21:11.461Z,5.50
2022-08-01T20:24:29.127Z,5.70
2022-08-01T20:27:49.545Z,5.58
2022-08-01T20:31:09.396Z,5.40
2022-08-01T20:34:30.539Z,5.08
2022-08-01T20:38:04.100Z,5.03
2022-08-01T20:41:10.092Z,5.25
2022-08-01T20:44:30.791Z,4.83
2022-08-01T20:47:50.486Z,5.83
2022-08-01T20:51:21.144Z,5.33
2022-08-01T20:54:37.996Z,5.28
2022-08-01T20:57:58.186Z,5.00
2022-08-01T21:01:16.573Z,5.58
2022-08-01T21:04:53.109Z,4.90
2022-08-01T21:08:17.087Z,5.25
2022-08-01T21:11:41.325Z,5.25
2022-08-01T21:15:03.757Z,5.25
2022-08-01T21:18:23.920Z,5.75
2022-08-01T21:21:41.472Z,8.15
2022-08-01T21:25:03.366Z,5.90
2022-08-01T21:28:22.061Z,6.18
2022-08-01T21:31:41.447Z,6.25
2022-08-01T21:34:59.502Z,5.85
2022-08-01T21:38:15.563Z,6.00
2022-08-01T21:41:56.270Z,6.13
2022-08-01T21:44:53.558Z,5.75
2022-08-01T21:48:11.694Z,5.93
2022-08-01T21:51:37.770Z,5.95
2022-08-01T21:55:10.767Z,6.40
2022-08-01T21:58:37.999Z,7.00
2022-08-01T22:02:00.790Z,6.48
2022-08-01T22:05:20.071Z,6.23
2022-08-01T22:08:44.947Z,6.55
2022-08-01T22:12:02.128Z,6.78
2022-08-01T22:15:22.172Z,6.73
2022-08-01T22:18:39.918Z,7.78
2022-08-01T22:21:59.501Z,7.00
2022-08-01T22:25:18.689Z,7.80
2022-08-01T22:28:36.257Z,8.05
2022-08-01T22:31:57.726Z,7.08
2022-08-01T22:35:17.445Z,7.83
2022-08-01T22:38:34.463Z,7.50
2022-08-01T22:42:11.310Z,8.25
2022-08-01T22:45:20.008Z,8.75
2022-08-01T22:48:43.755Z,8.95
2022-08-01T22:52:08.347Z,9.40
2022-08-01T22:55:59.377Z,9.48
2022-08-01T22:58:49.077Z,9.80
2022-08-01T23:02:09.519Z,9.35
2022-08-01T23:05:32.661Z,9.65
2022-08-01T23:08:52.213Z,9.48
2022-08-01T23:12:10.078Z,9.28
2022-08-01T23:15:28.046Z,7.77
2022-08-01T23:18:49.373Z,9.28
2022-08-01T23:22:09.345Z,10.03
2022-08-01T23:25:26.601Z,9.55
2022-08-01T23:28:43.926Z,9.65
2022-08-01T23:32:06.203Z,10.48
2022-08-01T23:35:19.660Z,11.18
2022-08-01T23:38:36.103Z,10.70
2022-08-01T23:41:57.583Z,11.03
2022-08-01T23:45:15.228Z,10.98
2022-08-01T23:48:31.231Z,10.75
2022-08-01T23:51:47.665Z,10.28
2022-08-01T23:55:12.382Z,10.78
2022-08-01T23:58:22.273Z,10.68
